KACT

Waco Regional Airport

Waco, Texas, USA
KACT 212105Z 2121/2218 20010KT P6SM BKN300 FM221200 23007KT P6SM FEW300
Issued Valid From Valid To
Jul-21 @ 21:05 UTC
(2 hours ago)
Jul-21 @ 21:00 UTC
(2 hours ago)
Jul-22 @ 18:00 UTC
(in 19 hours)
Jul-21 @ 21:00 to Jul-22 @ 12:00
KACT 212105Z 2121/2218 20010KT P6SM BKN300
Wind Visibility Clouds
200° at 10 knots Greater than 6 miles
  • Broken at 30,000' AGL
From Jul-22 @ 12:00 to Jul-22 @ 18:00
FM221200 23007KT P6SM FEW300
Wind Visibility Clouds
230° at 7 knots Greater than 6 miles
  • Few at 30,000' AGL
KACT 212105Z 2121/2218 20010KT P6SM BKN300 FM221200 23007KT P6SM FEW300
Issued Jul-21 @ 21:05 UTC
(2 hours ago)
Valid From Jul-21 @ 21:00 UTC
(2 hours ago)
Valid To Jul-22 @ 18:00 UTC
(in 19 hours)
Jul-21 @ 21:00 - Jul-22 @ 12:00
Wind Visibility
200° at 10 knots Greater than 6 miles
Clouds
  • Broken at 30,000' AGL
From Jul-22 @ 12:00 - Jul-22 @ 18:00
Wind Visibility
230° at 7 knots Greater than 6 miles
Clouds
  • Few at 30,000' AGL